Time;durP1;ratioP1;P1;durP2;ratioP2;P2;SDS_P1;SDS_P2;PMS_P1;PMS_P2;Temp;Humidity;BMP_temperature;BMP_pressure;BME280_temperature;BME280_humidity;BME280_pressure;Samples;Min_cycle;Max_cycle;Signal;HPM_P1;HPM_P2
2022/08/27 00:01:24;;;;;;;;;;;18.50;99.90;;;;;;4195216;28;19904;-62
2022/08/27 00:03:25;;;;;;;;;;;18.50;99.90;;;;;;4196742;28;19930;-62
2022/08/27 00:05:25;;;;;;;;;;;18.50;99.90;;;;;;4194085;28;20018;-62
2022/08/27 00:07:27;;;;;;;;;;;18.50;99.90;;;;;;4196584;28;19908;-62
2022/08/27 00:09:28;;;;;;;;;;;18.50;99.90;;;;;;4194836;28;19904;-62
2022/08/27 00:11:29;;;;;;;;;;;18.50;99.90;;;;;;4196423;28;19916;-62
2022/08/27 00:13:29;;;;;;;;;;;18.50;99.90;;;;;;4194888;28;19927;-62
2022/08/27 00:15:31;;;;;;;;;;;18.50;99.90;;;;;;4196415;28;19953;-62
2022/08/27 00:17:33;;;;;;;;;;;18.50;99.90;;;;;;4193935;28;19961;-63
2022/08/27 00:19:35;;;;;;;;;;;18.40;99.90;;;;;;4195709;28;20360;-63
2022/08/27 00:21:37;;;;;;;;;;;18.40;99.90;;;;;;4194740;28;19905;-62
2022/08/27 00:23:38;;;;;;;;;;;18.40;99.90;;;;;;4194887;28;19904;-63
2022/08/27 00:25:39;;;;;;;;;;;18.30;99.90;;;;;;4195321;28;19908;-63
2022/08/27 00:27:41;;;;;;;;;;;18.40;99.90;;;;;;4194538;28;20020;-62
2022/08/27 00:29:42;;;;;;;;;;;18.40;99.90;;;;;;4195083;28;19904;-62
2022/08/27 00:31:42;;;;;;;;;;;18.40;99.90;;;;;;4194330;28;20056;-63
2022/08/27 00:33:43;;;;;;;;;;;18.40;99.90;;;;;;4195851;28;19909;-64
2022/08/27 00:35:44;;;;;;;;;;;18.40;99.90;;;;;;4194364;28;20334;-64
2022/08/27 00:37:45;;;;;;;;;;;18.40;99.90;;;;;;4196102;28;19951;-62
2022/08/27 00:39:46;;;;;;;;;;;18.40;99.90;;;;;;4194131;28;19916;-63
2022/08/27 00:41:47;;;;;;;;;;;18.40;99.90;;;;;;4196099;28;19909;-62
2022/08/27 00:43:48;;;;;;;;;;;18.40;99.90;;;;;;4194394;28;19908;-63
2022/08/27 00:45:52;;;;;;;;;;;18.40;99.90;;;;;;4195834;28;19962;-62
2022/08/27 00:47:55;;;;;;;;;;;18.40;99.90;;;;;;4194227;28;19950;-63
2022/08/27 00:50:00;;;;;;;;;;;18.40;99.90;;;;;;4195515;28;20360;-64
2022/08/27 00:52:05;;;;;;;;;;;18.40;99.90;;;;;;4193756;28;20322;-63
2022/08/27 00:54:08;;;;;;;;;;;18.40;99.90;;;;;;4195432;28;19909;-63
2022/08/27 00:56:10;;;;;;;;;;;18.30;99.90;;;;;;4194014;28;19908;-62
2022/08/27 00:58:26;;;;;;;;;;;18.30;99.90;;;;;;4194979;28;19934;-64
2022/08/27 01:00:27;;;;;;;;;;;18.20;99.90;;;;;;4194347;28;19950;-62
2022/08/27 01:02:29;;;;;;;;;;;18.10;99.90;;;;;;4194200;28;19908;-64
2022/08/27 01:04:31;;;;;;;;;;;18.10;99.90;;;;;;4194747;28;19912;-63
2022/08/27 01:06:35;;;;;;;;;;;17.90;99.90;;;;;;4194223;28;19912;-65
2022/08/27 01:08:37;;;;;;;;;;;17.80;99.90;;;;;;4194730;28;19946;-65
2022/08/27 01:10:39;;;;;;;;;;;17.60;99.90;;;;;;4193841;28;20314;-62
2022/08/27 01:12:40;;;;;;;;;;;17.60;99.90;;;;;;4195051;28;19904;-63
2022/08/27 01:14:42;;;;;;;;;;;17.60;99.90;;;;;;4193769;28;19908;-63
2022/08/27 01:16:51;;;;;;;;;;;17.60;99.90;;;;;;4195402;28;19908;-62
2022/08/27 01:18:53;;;;;;;;;;;17.60;99.90;;;;;;4193805;28;20402;-63
2022/08/27 01:21:01;;;;;;;;;;;17.50;99.90;;;;;;4194494;28;20418;-62
2022/08/27 01:23:14;;;;;;;;;;;17.50;99.90;;;;;;4193778;28;19904;-61
2022/08/27 01:25:17;;;;;;;;;;;17.50;99.90;;;;;;4195287;28;19912;-62
2022/08/27 01:27:19;;;;;;;;;;;17.50;99.90;;;;;;4193557;28;19908;-62
2022/08/27 01:29:20;;;;;;;;;;;17.50;99.90;;;;;;4195210;28;19904;-63
2022/08/27 01:31:21;;;;;;;;;;;17.50;99.90;;;;;;4193623;28;19962;-62
2022/08/27 01:33:22;;;;;;;;;;;17.40;99.90;;;;;;4194519;28;19904;-62
2022/08/27 01:35:23;;;;;;;;;;;17.40;99.90;;;;;;4193089;28;19917;-63
2022/08/27 01:37:25;;;;;;;;;;;17.30;99.90;;;;;;4194675;28;19904;-63
2022/08/27 01:39:26;;;;;;;;;;;17.30;99.90;;;;;;4193085;28;19954;-63
2022/08/27 01:41:27;;;;;;;;;;;17.30;99.90;;;;;;4194361;28;19904;-63
2022/08/27 01:43:29;;;;;;;;;;;17.30;99.90;;;;;;4194042;28;19995;-62
2022/08/27 01:45:36;;;;;;;;;;;17.30;99.90;;;;;;4193885;28;20348;-62
2022/08/27 01:47:37;;;;;;;;;;;17.30;99.90;;;;;;4194426;28;19908;-62
2022/08/27 01:49:38;;;;;;;;;;;17.30;99.90;;;;;;4193511;28;19990;-62
2022/08/27 01:51:39;;;;;;;;;;;17.20;99.90;;;;;;4194047;28;19943;-62
2022/08/27 01:53:40;;;;;;;;;;;17.20;99.90;;;;;;4193508;28;19908;-61
2022/08/27 01:55:43;;;;;;;;;;;17.10;99.90;;;;;;4195027;28;20319;-63
2022/08/27 01:57:44;;;;;;;;;;;17.10;99.90;;;;;;4193247;28;20399;-62
2022/08/27 01:59:45;;;;;;;;;;;17.00;99.90;;;;;;4194948;28;20374;-62
2022/08/27 02:01:47;;;;;;;;;;;17.00;99.90;;;;;;4192794;28;19904;-63
2022/08/27 02:03:48;;;;;;;;;;;17.00;99.90;;;;;;4194861;28;20265;-62
2022/08/27 02:05:49;;;;;;;;;;;16.90;99.90;;;;;;4193082;28;19904;-63
2022/08/27 02:07:50;;;;;;;;;;;16.80;99.90;;;;;;4194799;28;19909;-61
2022/08/27 02:09:51;;;;;;;;;;;16.70;99.90;;;;;;4193208;28;19904;-62
2022/08/27 02:11:52;;;;;;;;;;;16.70;99.90;;;;;;4194333;28;19917;-62
2022/08/27 02:13:53;;;;;;;;;;;16.60;99.90;;;;;;4193579;28;19908;-61
2022/08/27 02:15:54;;;;;;;;;;;16.60;99.90;;;;;;4193887;28;19909;-62
2022/08/27 02:17:55;;;;;;;;;;;16.60;99.90;;;;;;4193744;28;19977;-62
2022/08/27 02:19:57;;;;;;;;;;;16.70;99.90;;;;;;4193035;28;19904;-60
2022/08/27 02:21:59;;;;;;;;;;;16.60;99.90;;;;;;4194408;28;19972;-62
2022/08/27 02:24:00;;;;;;;;;;;16.60;99.90;;;;;;4193232;28;19908;-62
2022/08/27 02:26:01;;;;;;;;;;;16.60;99.90;;;;;;4193900;28;20001;-61
2022/08/27 02:28:02;;;;;;;;;;;16.60;99.90;;;;;;4193136;28;19904;-61
2022/08/27 02:30:04;;;;;;;;;;;16.50;99.90;;;;;;4194318;28;19906;-61
2022/08/27 02:32:05;;;;;;;;;;;16.40;99.90;;;;;;4192885;28;19962;-62
2022/08/27 02:34:06;;;;;;;;;;;16.30;99.90;;;;;;4176161;28;20257;-61
2022/08/27 02:36:07;;;;;;;;;;;16.20;99.90;;;;;;4192062;28;19908;-62
2022/08/27 02:38:09;;;;;;;;;;;16.20;99.90;;;;;;4194804;28;20372;-63
2022/08/27 02:40:10;;;;;;;;;;;16.10;99.90;;;;;;4192982;28;20340;-61
2022/08/27 02:42:11;;;;;;;;;;;16.10;99.90;;;;;;4194128;28;19958;-62
2022/08/27 02:44:12;;;;;;;;;;;16.10;99.90;;;;;;4193304;28;20332;-62
2022/08/27 02:46:14;;;;;;;;;;;16.20;99.90;;;;;;4193601;28;19905;-63
2022/08/27 02:48:15;;;;;;;;;;;16.20;99.90;;;;;;4193890;28;19904;-61
2022/08/27 02:50:16;;;;;;;;;;;16.10;99.90;;;;;;4194815;28;19908;-62
2022/08/27 02:52:17;;;;;;;;;;;16.10;99.90;;;;;;4197388;28;19974;-62
2022/08/27 02:54:18;;;;;;;;;;;15.90;99.90;;;;;;4196058;28;20314;-63
2022/08/27 02:56:19;;;;;;;;;;;15.80;99.90;;;;;;4196864;28;20360;-61
2022/08/27 02:58:19;;;;;;;;;;;15.80;99.90;;;;;;4195972;28;19908;-62
2022/08/27 03:00:22;;;;;;;;;;;15.90;99.90;;;;;;4197490;28;19908;-61
2022/08/27 03:02:23;;;;;;;;;;;15.90;99.90;;;;;;4195848;28;19909;-61
2022/08/27 03:04:24;;;;;;;;;;;16.00;99.90;;;;;;4197489;28;20323;-60
2022/08/27 03:06:25;;;;;;;;;;;16.10;99.90;;;;;;4195832;28;19908;-61
2022/08/27 03:08:26;;;;;;;;;;;16.10;99.90;;;;;;4197548;28;19950;-61
2022/08/27 03:10:27;;;;;;;;;;;16.20;99.90;;;;;;4195812;28;19912;-62
2022/08/27 03:12:28;;;;;;;;;;;16.20;99.90;;;;;;4178837;28;19913;-64
2022/08/27 03:14:30;;;;;;;;;;;16.30;99.90;;;;;;4196097;28;19954;-62
2022/08/27 03:16:34;;;;;;;;;;;16.30;99.90;;;;;;4196488;28;19908;-61
2022/08/27 03:18:35;;;;;;;;;;;16.30;99.90;;;;;;4196310;28;19911;-62
2022/08/27 03:20:39;;;;;;;;;;;16.30;99.90;;;;;;4195059;28;19912;-64
2022/08/27 03:22:41;;;;;;;;;;;16.30;99.90;;;;;;4196702;28;19958;-62
2022/08/27 03:24:41;;;;;;;;;;;16.20;99.90;;;;;;4195514;28;19904;-62
2022/08/27 03:26:43;;;;;;;;;;;16.10;99.90;;;;;;4197165;28;19912;-62
2022/08/27 03:28:45;;;;;;;;;;;16.00;99.90;;;;;;4195497;28;19908;-61
2022/08/27 03:30:47;;;;;;;;;;;15.90;99.90;;;;;;4197194;28;19962;-63
2022/08/27 03:32:49;;;;;;;;;;;15.90;99.90;;;;;;4195374;28;20379;-62
2022/08/27 03:34:50;;;;;;;;;;;15.90;99.90;;;;;;4196743;28;19920;-62
2022/08/27 03:36:51;;;;;;;;;;;15.90;99.90;;;;;;4194627;28;20043;-63
2022/08/27 03:38:52;;;;;;;;;;;15.90;99.90;;;;;;4196898;28;19904;-63
2022/08/27 03:40:54;;;;;;;;;;;15.80;99.90;;;;;;4195272;28;20260;-63
2022/08/27 03:42:55;;;;;;;;;;;15.80;99.90;;;;;;4196829;28;19908;-62
2022/08/27 03:44:56;;;;;;;;;;;15.80;99.90;;;;;;4194654;28;19908;-62
2022/08/27 03:46:57;;;;;;;;;;;15.70;99.90;;;;;;4196272;28;20314;-63
2022/08/27 03:48:58;;;;;;;;;;;15.70;99.90;;;;;;4195518;28;19904;-62
2022/08/27 03:51:03;;;;;;;;;;;15.80;99.90;;;;;;4195530;28;19909;-62
2022/08/27 03:53:04;;;;;;;;;;;15.80;99.90;;;;;;4195778;28;19962;-62
2022/08/27 03:55:06;;;;;;;;;;;15.80;99.90;;;;;;4195009;28;19927;-63
2022/08/27 03:57:07;;;;;;;;;;;15.90;99.90;;;;;;4196134;28;20361;-63
2022/08/27 03:59:08;;;;;;;;;;;15.90;99.90;;;;;;4176987;28;19911;-61
2022/08/27 04:01:09;;;;;;;;;;;16.00;99.90;;;;;;4195214;28;20533;-63
2022/08/27 04:03:13;;;;;;;;;;;16.10;99.90;;;;;;4194978;28;19904;-62
2022/08/27 04:05:14;;;;;;;;;;;16.20;99.90;;;;;;4196438;28;19904;-64
2022/08/27 04:07:15;;;;;;;;;;;16.40;99.90;;;;;;4194890;28;19908;-62
2022/08/27 04:09:16;;;;;;;;;;;16.60;99.90;;;;;;4196307;28;19931;-62
2022/08/27 04:11:17;;;;;;;;;;;16.70;99.90;;;;;;4194622;28;19942;-63
2022/08/27 04:13:19;;;;;;;;;;;17.00;99.90;;;;;;4195534;28;19904;-64
2022/08/27 04:15:20;;;;;;;;;;;17.20;99.90;;;;;;4193983;28;19912;-63
2022/08/27 04:17:21;;;;;;;;;;;17.40;99.90;;;;;;4195993;28;20348;-62
2022/08/27 04:19:23;;;;;;;;;;;17.60;99.90;;;;;;4195090;28;19955;-61
2022/08/27 04:21:24;;;;;;;;;;;17.90;99.90;;;;;;4195338;28;19966;-63
2022/08/27 04:23:25;;;;;;;;;;;18.20;99.90;;;;;;4195446;28;20318;-62
2022/08/27 04:25:26;;;;;;;;;;;18.50;99.90;;;;;;4194838;28;19904;-62
2022/08/27 04:27:27;;;;;;;;;;;18.80;99.90;;;;;;4195866;28;19909;-63
2022/08/27 04:29:28;;;;;;;;;;;19.20;99.90;;;;;;4193917;28;19908;-62
2022/08/27 04:31:29;;;;;;;;;;;19.60;99.90;;;;;;4195050;28;19921;-61
2022/08/27 04:33:31;;;;;;;;;;;20.00;99.90;;;;;;4194121;28;19905;-63
2022/08/27 04:35:32;;;;;;;;;;;20.40;99.90;;;;;;4195856;28;20345;-61
2022/08/27 04:37:33;;;;;;;;;;;20.80;99.90;;;;;;4194283;28;19950;-61
2022/08/27 04:39:34;;;;;;;;;;;21.10;99.90;;;;;;4195989;28;20009;-62
2022/08/27 04:41:35;;;;;;;;;;;21.50;99.90;;;;;;4194249;28;19904;-62
2022/08/27 04:43:36;;;;;;;;;;;21.80;99.90;;;;;;4194978;28;20268;-62
2022/08/27 04:45:43;;;;;;;;;;;22.10;99.90;;;;;;4193497;28;20383;-62
2022/08/27 04:47:44;;;;;;;;;;;22.40;99.90;;;;;;4195506;28;19904;-62
2022/08/27 04:49:45;;;;;;;;;;;22.80;99.90;;;;;;4193750;28;19962;-62
2022/08/27 04:51:46;;;;;;;;;;;23.00;99.50;;;;;;4194825;28;19912;-64
2022/08/27 04:53:48;;;;;;;;;;;23.30;99.00;;;;;;4194678;28;20253;-62
2022/08/27 04:55:51;;;;;;;;;;;23.60;98.10;;;;;;4194574;28;20325;-63
2022/08/27 04:57:52;;;;;;;;;;;23.90;97.50;;;;;;4194819;28;19912;-62
2022/08/27 04:59:53;;;;;;;;;;;24.40;96.90;;;;;;4193940;28;19911;-62
2022/08/27 05:01:54;;;;;;;;;;;24.70;95.80;;;;;;4195227;28;19950;-63
2022/08/27 05:03:55;;;;;;;;;;;24.60;95.40;;;;;;4193677;28;19908;-62
2022/08/27 05:06:01;;;;;;;;;;;24.60;95.30;;;;;;4195211;28;19950;-61
2022/08/27 05:08:02;;;;;;;;;;;24.60;94.90;;;;;;4193870;28;19953;-61
2022/08/27 05:10:03;;;;;;;;;;;24.70;94.60;;;;;;4195381;28;19973;-62
2022/08/27 05:12:04;;;;;;;;;;;24.90;94.50;;;;;;4193482;28;19916;-62
2022/08/27 05:14:06;;;;;;;;;;;25.10;94.40;;;;;;4194184;28;19966;-62
2022/08/27 05:16:08;;;;;;;;;;;25.50;94.90;;;;;;4193189;28;20245;-63
2022/08/27 05:18:10;;;;;;;;;;;25.70;93.70;;;;;;4195384;28;19909;-62
2022/08/27 05:20:11;;;;;;;;;;;25.70;93.20;;;;;;4193547;28;19909;-63
2022/08/27 05:22:12;;;;;;;;;;;26.00;92.60;;;;;;4194805;28;19970;-64
2022/08/27 05:24:13;;;;;;;;;;;26.30;92.10;;;;;;4193700;28;20282;-64
2022/08/27 05:26:14;;;;;;;;;;;26.20;91.60;;;;;;4193744;28;19912;-64
2022/08/27 05:28:16;;;;;;;;;;;26.20;91.50;;;;;;4194140;28;19911;-65
2022/08/27 05:30:17;;;;;;;;;;;26.40;91.00;;;;;;4193715;28;19954;-62
2022/08/27 05:32:18;;;;;;;;;;;26.60;91.10;;;;;;4194521;28;19916;-62
2022/08/27 05:34:20;;;;;;;;;;;26.70;90.60;;;;;;4193108;28;19920;-63
2022/08/27 05:36:25;;;;;;;;;;;27.00;90.20;;;;;;4194890;28;19912;-62
2022/08/27 05:38:27;;;;;;;;;;;27.30;89.20;;;;;;4193247;28;19908;-62
2022/08/27 05:40:28;;;;;;;;;;;27.60;88.30;;;;;;4194914;28;19950;-64
2022/08/27 05:42:30;;;;;;;;;;;28.00;87.60;;;;;;4193269;28;19934;-63
2022/08/27 05:44:31;;;;;;;;;;;28.10;85.70;;;;;;4194250;28;19908;-62
2022/08/27 05:46:32;;;;;;;;;;;28.40;86.30;;;;;;4193088;28;20322;-61
2022/08/27 05:48:34;;;;;;;;;;;28.60;84.20;;;;;;4194899;28;19966;-61
2022/08/27 05:50:35;;;;;;;;;;;28.90;83.30;;;;;;4192841;28;19908;-62
2022/08/27 05:52:36;;;;;;;;;;;29.40;82.20;;;;;;4193756;28;20352;-62
2022/08/27 05:54:38;;;;;;;;;;;29.30;80.40;;;;;;4193208;28;19987;-61
2022/08/27 05:56:40;;;;;;;;;;;28.80;82.10;;;;;;4194078;28;19908;-62
2022/08/27 06:01:04;;;;;;;;;;;28.50;81.50;;;;;;4194441;28;19950;-62
2022/08/27 06:03:06;;;;;;;;;;;28.90;81.20;;;;;;4193438;28;19905;-62
2022/08/27 06:05:07;;;;;;;;;;;29.30;79.90;;;;;;4193705;28;20318;-62
2022/08/27 06:07:09;;;;;;;;;;;29.50;79.40;;;;;;4193710;28;19904;-62
2022/08/27 06:09:11;;;;;;;;;;;29.70;78.50;;;;;;4192737;28;19908;-62
2022/08/27 06:11:13;;;;;;;;;;;29.60;77.50;;;;;;4194033;28;20340;-62
2022/08/27 06:13:14;;;;;;;;;;;29.20;77.30;;;;;;4192793;28;19958;-63
2022/08/27 06:15:15;;;;;;;;;;;29.10;78.20;;;;;;4194417;28;19908;-61
2022/08/27 06:17:16;;;;;;;;;;;29.50;77.40;;;;;;4192689;28;19911;-61
2022/08/27 06:19:17;;;;;;;;;;;29.80;76.60;;;;;;4194543;28;20367;-61
2022/08/27 06:21:21;;;;;;;;;;;30.10;77.10;;;;;;4191942;28;19905;-62
2022/08/27 06:23:22;;;;;;;;;;;29.90;75.50;;;;;;4194445;28;19905;-62
2022/08/27 06:25:23;;;;;;;;;;;29.70;75.50;;;;;;4194724;28;20268;-63
2022/08/27 06:27:24;;;;;;;;;;;29.80;75.60;;;;;;4197778;28;19909;-63
2022/08/27 06:29:25;;;;;;;;;;;29.90;75.90;;;;;;4196237;28;19915;-64
2022/08/27 06:31:26;;;;;;;;;;;30.30;75.00;;;;;;4197569;28;19939;-63
2022/08/27 06:33:27;;;;;;;;;;;30.30;74.40;;;;;;4196047;28;20429;-62
2022/08/27 06:35:28;;;;;;;;;;;29.70;74.60;;;;;;4196783;28;19908;-62
2022/08/27 06:37:29;;;;;;;;;;;29.90;74.90;;;;;;4196600;28;19970;-62
2022/08/27 06:39:31;;;;;;;;;;;30.30;74.60;;;;;;4196481;28;19978;-61
2022/08/27 06:41:32;;;;;;;;;;;30.60;74.10;;;;;;4196357;28;20394;-61
2022/08/27 06:43:34;;;;;;;;;;;30.90;75.30;;;;;;4195661;28;19950;-63
2022/08/27 06:45:38;;;;;;;;;;;31.10;72.30;;;;;;4197332;28;19912;-62
2022/08/27 06:47:39;;;;;;;;;;;31.50;72.40;;;;;;4195779;28;19957;-61
2022/08/27 06:49:40;;;;;;;;;;;31.80;70.90;;;;;;4196802;28;20311;-62
2022/08/27 06:51:43;;;;;;;;;;;31.80;70.20;;;;;;4195397;28;19908;-62
2022/08/27 06:53:46;;;;;;;;;;;31.10;70.70;;;;;;4197212;28;19912;-62
2022/08/27 06:55:47;;;;;;;;;;;30.80;71.20;;;;;;4195579;28;19934;-62
2022/08/27 06:57:48;;;;;;;;;;;30.90;71.50;;;;;;4196811;28;19961;-63
2022/08/27 06:59:49;;;;;;;;;;;30.70;71.10;;;;;;4195447;28;19955;-62
2022/08/27 07:01:50;;;;;;;;;;;30.60;71.10;;;;;;4196644;28;19908;-62
2022/08/27 07:03:52;;;;;;;;;;;30.30;71.80;;;;;;4195246;28;20006;-63
2022/08/27 07:06:01;;;;;;;;;;;30.50;73.40;;;;;;4196515;28;19909;-63
2022/08/27 07:08:02;;;;;;;;;;;30.60;71.60;;;;;;4195491;28;19913;-63
2022/08/27 07:10:04;;;;;;;;;;;30.50;70.70;;;;;;4195715;28;19973;-62
2022/08/27 07:12:05;;;;;;;;;;;29.90;71.30;;;;;;4195985;28;20368;-63
2022/08/27 07:14:07;;;;;;;;;;;29.90;72.50;;;;;;4177389;28;19954;-62
2022/08/27 07:16:09;;;;;;;;;;;30.10;71.60;;;;;;4195557;28;19970;-63
2022/08/27 07:18:10;;;;;;;;;;;30.20;71.70;;;;;;4195280;28;19908;-62
2022/08/27 07:20:12;;;;;;;;;;;30.00;72.00;;;;;;4195931;28;19969;-63
2022/08/27 07:22:13;;;;;;;;;;;29.90;72.30;;;;;;4195380;28;19908;-63
2022/08/27 07:24:14;;;;;;;;;;;30.20;72.10;;;;;;4196945;28;20000;-63
2022/08/27 07:26:15;;;;;;;;;;;30.10;71.20;;;;;;4177426;28;19905;-63
2022/08/27 07:28:17;;;;;;;;;;;30.00;71.80;;;;;;4196856;28;19983;-63
2022/08/27 07:30:18;;;;;;;;;;;30.10;73.40;;;;;;4194921;28;19953;-64
2022/08/27 07:32:19;;;;;;;;;;;30.30;71.20;;;;;;4196785;28;20006;-63
2022/08/27 07:34:19;;;;;;;;;;;30.50;71.60;;;;;;4194930;28;19986;-63
2022/08/27 07:36:21;;;;;;;;;;;30.70;71.10;;;;;;4194944;28;19908;-64
2022/08/27 07:38:22;;;;;;;;;;;30.70;70.50;;;;;;4194997;28;19904;-63
2022/08/27 07:40:23;;;;;;;;;;;30.80;70.00;;;;;;4196102;28;20410;-63
2022/08/27 07:44:43;;;;;;;;;;;31.20;72.10;;;;;;4195870;28;20061;-63
2022/08/27 07:46:44;;;;;;;;;;;31.60;69.60;;;;;;4195424;28;20003;-63
2022/08/27 07:48:45;;;;;;;;;;;31.40;68.70;;;;;;4195512;28;20018;-63
2022/08/27 07:50:46;;;;;;;;;;;31.30;70.00;;;;;;4195751;28;19938;-64
2022/08/27 07:52:47;;;;;;;;;;;30.70;68.70;;;;;;4194988;28;19930;-64
2022/08/27 07:54:50;;;;;;;;;;;29.80;70.00;;;;;;4195168;28;19916;-62
2022/08/27 07:56:51;;;;;;;;;;;29.60;70.80;;;;;;4194573;28;20287;-63
2022/08/27 07:58:52;;;;;;;;;;;29.20;71.70;;;;;;4178086;28;19905;-63
2022/08/27 08:00:54;;;;;;;;;;;29.10;72.70;;;;;;4193805;28;19908;-62
2022/08/27 08:02:55;;;;;;;;;;;29.00;73.20;;;;;;4196144;28;19904;-63
2022/08/27 08:04:56;;;;;;;;;;;28.90;72.50;;;;;;4194517;28;19908;-63
2022/08/27 08:06:57;;;;;;;;;;;29.10;72.80;;;;;;4196289;28;19947;-62
2022/08/27 08:08:58;;;;;;;;;;;28.80;72.80;;;;;;4194518;28;19904;-63
2022/08/27 08:11:02;;;;;;;;;;;28.90;73.30;;;;;;4195783;28;19905;-64
2022/08/27 08:13:04;;;;;;;;;;;28.80;73.80;;;;;;4194460;28;19916;-62
2022/08/27 08:15:06;;;;;;;;;;;28.40;74.50;;;;;;4195422;28;19908;-65
2022/08/27 08:17:07;;;;;;;;;;;28.30;75.20;;;;;;4194668;28;19900;-62
2022/08/27 08:19:08;;;;;;;;;;;28.30;75.30;;;;;;4195117;28;19978;-64
2022/08/27 08:21:11;;;;;;;;;;;28.20;75.70;;;;;;4194805;28;19908;-62
2022/08/27 08:23:12;;;;;;;;;;;28.30;75.50;;;;;;4194103;28;19924;-62
2022/08/27 08:25:13;;;;;;;;;;;28.60;74.90;;;;;;4194541;28;19958;-62
2022/08/27 08:27:14;;;;;;;;;;;28.70;74.80;;;;;;4194085;28;20466;-62
2022/08/27 08:29:15;;;;;;;;;;;28.70;74.30;;;;;;4195606;28;19904;-62
2022/08/27 08:31:16;;;;;;;;;;;28.60;74.70;;;;;;4194095;28;20422;-61
2022/08/27 08:33:17;;;;;;;;;;;28.50;74.80;;;;;;4194722;28;19919;-62
2022/08/27 08:35:18;;;;;;;;;;;28.60;74.50;;;;;;4192568;28;19920;-62
2022/08/27 08:37:19;;;;;;;;;;;28.80;74.50;;;;;;4195662;28;19965;-62
2022/08/27 08:39:20;;;;;;;;;;;28.50;74.90;;;;;;4194117;28;19912;-62
2022/08/27 08:41:21;;;;;;;;;;;28.40;75.80;;;;;;4195481;28;19969;-61
2022/08/27 08:43:37;;;;;;;;;;;28.40;75.60;;;;;;4193837;28;19908;-61
2022/08/27 08:45:39;;;;;;;;;;;28.50;75.80;;;;;;4195697;28;19908;-61
2022/08/27 08:47:47;;;;;;;;;;;28.60;75.70;;;;;;4193505;28;20405;-61
2022/08/27 08:50:15;;;;;;;;;;;28.70;75.30;;;;;;4195236;28;19908;-61
2022/08/27 08:52:37;;;;;;;;;;;28.70;75.30;;;;;;4190467;28;20771;-62
2022/08/27 08:54:38;;;;;;;;;;;28.60;75.60;;;;;;4195298;28;19957;-62
2022/08/27 08:56:46;;;;;;;;;;;28.40;75.70;;;;;;4193603;28;19954;-62
2022/08/27 08:58:51;;;;;;;;;;;28.30;75.80;;;;;;4195229;28;19905;-62
2022/08/27 09:00:57;;;;;;;;;;;28.20;75.80;;;;;;4193606;28;19904;-62
2022/08/27 09:02:58;;;;;;;;;;;28.50;76.20;;;;;;4195332;28;20295;-61
2022/08/27 09:05:05;;;;;;;;;;;28.80;76.30;;;;;;4193343;28;20377;-61
2022/08/27 09:07:17;;;;;;;;;;;28.90;76.00;;;;;;4194412;28;19904;-62
2022/08/27 09:09:24;;;;;;;;;;;29.00;75.90;;;;;;4193442;28;20340;-62
2022/08/27 09:11:27;;;;;;;;;;;28.90;76.00;;;;;;4194074;28;19931;-61
2022/08/27 09:13:37;;;;;;;;;;;28.90;76.30;;;;;;4175273;28;19990;-62
2022/08/27 09:15:39;;;;;;;;;;;28.80;75.90;;;;;;4194789;28;19904;-63
2022/08/27 09:17:40;;;;;;;;;;;28.80;76.40;;;;;;4192906;28;19950;-62
2022/08/27 09:19:42;;;;;;;;;;;28.80;77.30;;;;;;4193882;28;19904;-62
2022/08/27 09:21:43;;;;;;;;;;;28.80;77.10;;;;;;4175904;28;20447;-62
2022/08/27 09:24:03;;;;;;;;;;;29.00;76.60;;;;;;4193606;28;19908;-62
2022/08/27 09:26:04;;;;;;;;;;;29.10;76.30;;;;;;4193077;28;19912;-63
2022/08/27 09:29:14;;;;;;;;;;;29.40;76.10;;;;;;4193856;28;20019;-62
2022/08/27 09:30:29;;;;;;;;;;;29.40;76.10;;;;;;4193633;28;20279;-62
2022/08/27 09:32:32;;;;;;;;;;;29.20;76.40;;;;;;4193537;28;19920;-62
2022/08/27 09:34:35;;;;;;;;;;;29.10;76.90;;;;;;4194198;28;19924;-62
2022/08/27 09:36:47;;;;;;;;;;;29.10;76.60;;;;;;4193089;28;19969;-62
2022/08/27 09:38:57;;;;;;;;;;;29.30;76.40;;;;;;4193879;28;19916;-62
2022/08/27 09:40:59;;;;;;;;;;;29.60;74.80;;;;;;4192695;28;20323;-61
2022/08/27 09:43:33;;;;;;;;;;;29.90;74.00;;;;;;4194081;28;20441;-62
2022/08/27 09:45:34;;;;;;;;;;;30.20;74.00;;;;;;4159834;28;19958;-61
2022/08/27 09:47:43;;;;;;;;;;;30.30;74.30;;;;;;4193446;28;19900;-62
2022/08/27 09:49:44;;;;;;;;;;;30.10;74.70;;;;;;4192947;28;19909;-62
2022/08/27 09:51:46;;;;;;;;;;;30.20;74.80;;;;;;4193530;28;19909;-62
2022/08/27 09:53:50;;;;;;;;;;;30.20;74.00;;;;;;4192396;28;19912;-64
2022/08/27 09:55:56;;;;;;;;;;;30.00;73.30;;;;;;4194075;28;19908;-62
2022/08/27 09:57:57;;;;;;;;;;;29.90;73.70;;;;;;4192338;28;19905;-63
2022/08/27 09:59:59;;;;;;;;;;;29.70;73.40;;;;;;4193655;28;20294;-62
2022/08/27 10:02:05;;;;;;;;;;;29.70;73.00;;;;;;4192366;28;19970;-61
2022/08/27 10:04:08;;;;;;;;;;;29.80;73.60;;;;;;4194581;28;20333;-62
2022/08/27 10:06:09;;;;;;;;;;;29.80;73.60;;;;;;4192881;28;19908;-61
2022/08/27 10:08:27;;;;;;;;;;;29.90;73.60;;;;;;4194625;28;19912;-61
2022/08/27 10:10:40;;;;;;;;;;;29.90;73.00;;;;;;4192572;28;19950;-62
2022/08/27 10:12:41;;;;;;;;;;;30.00;73.30;;;;;;4194260;28;19905;-62
2022/08/27 10:14:44;;;;;;;;;;;30.10;72.60;;;;;;4192814;28;19904;-62
2022/08/27 10:16:57;;;;;;;;;;;30.10;70.70;;;;;;4194422;28;20357;-62
2022/08/27 10:19:16;;;;;;;;;;;30.10;68.70;;;;;;4192903;28;20322;-62
2022/08/27 10:21:28;;;;;;;;;;;30.10;66.60;;;;;;4194487;28;19904;-62
2022/08/27 10:23:38;;;;;;;;;;;30.10;65.10;;;;;;4192396;28;20356;-62
2022/08/27 10:25:44;;;;;;;;;;;30.10;65.00;;;;;;4194274;28;19908;-63
2022/08/27 10:27:54;;;;;;;;;;;30.30;66.40;;;;;;4192478;28;20386;-64
2022/08/27 10:30:06;;;;;;;;;;;30.40;66.80;;;;;;4193688;28;19908;-61
2022/08/27 10:32:07;;;;;;;;;;;30.30;65.50;;;;;;4192595;28;19938;-61
2022/08/27 10:34:26;;;;;;;;;;;30.30;67.10;;;;;;4194109;28;19924;-61
2022/08/27 10:36:45;;;;;;;;;;;30.30;67.50;;;;;;4191612;28;19912;-61
2022/08/27 10:38:51;;;;;;;;;;;30.40;66.50;;;;;;4194194;28;20437;-62
2022/08/27 10:41:06;;;;;;;;;;;30.20;67.40;;;;;;4174706;28;19942;-64
2022/08/27 10:43:26;;;;;;;;;;;30.00;68.00;;;;;;4194098;28;19908;-62
2022/08/27 10:45:45;;;;;;;;;;;30.00;68.20;;;;;;4192437;28;19912;-62
2022/08/27 10:47:50;;;;;;;;;;;30.00;68.30;;;;;;4175551;28;19963;-62
2022/08/27 10:49:51;;;;;;;;;;;30.00;68.60;;;;;;4192264;28;19904;-62
2022/08/27 10:52:08;;;;;;;;;;;30.10;68.50;;;;;;4193875;28;20376;-62
2022/08/27 10:54:14;;;;;;;;;;;30.20;68.10;;;;;;4192334;28;19958;-63
2022/08/27 10:56:24;;;;;;;;;;;30.20;67.70;;;;;;4176192;28;19905;-62
2022/08/27 10:58:28;;;;;;;;;;;30.20;68.50;;;;;;4192453;28;19904;-62
2022/08/27 11:00:35;;;;;;;;;;;30.20;69.00;;;;;;4193396;28;20372;-62
2022/08/27 11:02:39;;;;;;;;;;;30.30;69.40;;;;;;4192726;28;19917;-63
2022/08/27 11:04:47;;;;;;;;;;;30.30;69.00;;;;;;4193973;28;19909;-62
2022/08/27 11:06:51;;;;;;;;;;;30.50;68.60;;;;;;4192033;28;19908;-62
2022/08/27 11:09:00;;;;;;;;;;;30.50;67.90;;;;;;4193826;28;19950;-62
2022/08/27 11:11:05;;;;;;;;;;;30.50;67.70;;;;;;4193651;28;20352;-64
2022/08/27 11:13:11;;;;;;;;;;;30.50;68.10;;;;;;4196510;28;19913;-62
2022/08/27 11:15:18;;;;;;;;;;;30.40;67.50;;;;;;4195380;28;19905;-62
2022/08/27 11:17:29;;;;;;;;;;;30.40;67.80;;;;;;4196922;28;19958;-62
2022/08/27 11:19:37;;;;;;;;;;;30.50;66.90;;;;;;4194973;28;20379;-62
2022/08/27 11:21:40;;;;;;;;;;;30.40;67.20;;;;;;4197013;28;19908;-62
2022/08/27 11:23:44;;;;;;;;;;;30.40;66.70;;;;;;4195466;28;19958;-63
2022/08/27 11:25:56;;;;;;;;;;;30.30;66.70;;;;;;4196964;28;19988;-63
2022/08/27 11:27:58;;;;;;;;;;;30.40;66.60;;;;;;4194725;28;19912;-61
2022/08/27 11:30:25;;;;;;;;;;;30.40;67.10;;;;;;4196549;28;19917;-62
2022/08/27 11:32:41;;;;;;;;;;;30.50;67.00;;;;;;4171355;28;19909;-64
2022/08/27 11:34:50;;;;;;;;;;;30.50;66.80;;;;;;4195415;28;20334;-63
2022/08/27 11:37:01;;;;;;;;;;;30.50;67.10;;;;;;4194179;28;19954;-61
2022/08/27 11:39:22;;;;;;;;;;;30.50;66.50;;;;;;4196715;28;19982;-62
2022/08/27 11:41:27;;;;;;;;;;;30.60;67.20;;;;;;4193893;28;19904;-62
2022/08/27 11:43:28;;;;;;;;;;;30.60;66.40;;;;;;4196798;28;19908;-63
2022/08/27 11:45:33;;;;;;;;;;;30.60;67.00;;;;;;4194991;28;19908;-66
2022/08/27 11:47:34;;;;;;;;;;;30.60;66.90;;;;;;4178695;28;19908;-62
2022/08/27 11:49:43;;;;;;;;;;;30.70;66.60;;;;;;4194898;28;20413;-63
2022/08/27 11:51:54;;;;;;;;;;;30.70;65.80;;;;;;4196133;28;19957;-61
2022/08/27 11:53:58;;;;;;;;;;;30.80;65.40;;;;;;4194749;28;20383;-62
2022/08/27 11:56:39;;;;;;;;;;;30.90;65.50;;;;;;4196423;28;20307;-62
2022/08/27 11:58:41;;;;;;;;;;;31.00;65.70;;;;;;4142786;28;20328;-62
2022/08/27 12:00:44;;;;;;;;;;;31.10;65.70;;;;;;4175440;28;19908;-63
2022/08/27 12:02:55;;;;;;;;;;;31.20;65.00;;;;;;4194828;28;19904;-63